Time;durP1;ratioP1;P1;durP2;ratioP2;P2;SDS_P1;SDS_P2;PMS_P1;PMS_P2;Temp;Humidity;BMP_temperature;BMP_pressure;BME280_temperature;BME280_humidity;BME280_pressure;Samples;Min_cycle;Max_cycle;Signal;HPM_P1;HPM_P2
2022/05/12 00:01:59;;;;;;;4.30;0.50;;;;;;;13.24;100.00;99486.91;1730756;82;21281;-46
2022/05/12 00:04:26;;;;;;;1.10;0.53;;;;;;;13.26;100.00;99485.47;1733404;82;21459;-49
2022/05/12 00:06:53;;;;;;;2.27;0.50;;;;;;;13.29;100.00;99477.14;1731438;82;21522;-48
2022/05/12 00:09:20;;;;;;;1.52;0.40;;;;;;;13.32;100.00;99482.37;1737019;82;21132;-49
2022/05/12 00:11:46;;;;;;;1.02;0.40;;;;;;;13.35;100.00;99486.24;1740125;82;20954;-48
2022/05/12 00:14:13;;;;;;;1.55;0.40;;;;;;;13.36;100.00;99489.30;1740416;82;21871;-47
2022/05/12 00:16:39;;;;;;;0.98;0.40;;;;;;;13.37;100.00;99481.58;1742541;82;21311;-48
2022/05/12 00:19:05;;;;;;;1.17;0.40;;;;;;;13.39;100.00;99485.06;1732352;82;21240;-49
2022/05/12 00:21:32;;;;;;;0.60;0.40;;;;;;;13.40;100.00;99482.75;1737040;82;20891;-49
2022/05/12 00:23:59;;;;;;;1.47;0.40;;;;;;;13.40;100.00;99474.64;1740430;82;20970;-49
2022/05/12 00:26:29;;;;;;;2.17;0.50;;;;;;;13.43;100.00;99474.94;1736760;82;21361;-50
2022/05/12 00:28:59;;;;;;;1.50;0.40;;;;;;;13.43;100.00;99478.51;1736728;82;20939;-53
2022/05/12 00:31:28;;;;;;;1.90;0.40;;;;;;;13.44;100.00;99480.22;1739071;82;21724;-53
2022/05/12 00:33:55;;;;;;;2.17;0.40;;;;;;;13.45;100.00;99474.33;1741960;82;20886;-49
2022/05/12 00:36:21;;;;;;;1.77;0.40;;;;;;;13.45;100.00;99477.03;1741233;82;20938;-49
2022/05/12 00:38:47;;;;;;;5.50;0.50;;;;;;;13.46;100.00;99472.01;1731721;82;21042;-51
2022/05/12 00:41:14;;;;;;;2.33;0.45;;;;;;;13.47;100.00;99473.27;1738814;82;21048;-52
2022/05/12 00:43:48;;;;;;;4.58;0.40;;;;;;;13.48;100.00;99477.72;1739451;82;22122;-53
2022/05/12 00:46:21;;;;;;;5.42;0.45;;;;;;;13.48;100.00;99475.01;1738245;82;21436;-48
2022/05/12 00:48:48;;;;;;;0.67;0.50;;;;;;;13.49;100.00;99475.40;1734226;82;21071;-48
2022/05/12 00:51:33;;;;;;;0.70;0.30;;;;;;;13.50;100.00;99474.44;1739372;82;21159;-49
2022/05/12 00:54:03;;;;;;;3.50;0.40;;;;;;;13.52;100.00;99474.34;1737587;82;20994;-52
2022/05/12 00:56:29;;;;;;;1.15;0.50;;;;;;;13.52;100.00;99485.16;1738289;81;21547;-50
2022/05/12 00:59:00;;;;;;;0.88;0.40;;;;;;;13.52;100.00;99476.56;1741061;82;21013;-50
2022/05/12 01:01:26;;;;;;;0.72;0.40;;;;;;;13.53;100.00;99474.22;1738221;82;21632;-49
2022/05/12 01:03:53;;;;;;;1.57;0.40;;;;;;;13.54;100.00;99471.03;1740227;82;21021;-49
2022/05/12 01:06:19;;;;;;;7.33;0.80;;;;;;;13.54;100.00;99471.91;1737256;82;21044;-49
2022/05/12 01:08:46;;;;;;;0.88;0.30;;;;;;;13.55;100.00;99471.42;1735459;82;21566;-47
2022/05/12 01:11:17;;;;;;;1.10;0.42;;;;;;;13.54;100.00;99461.09;1735036;82;21040;-52
2022/05/12 01:13:49;;;;;;;2.45;0.45;;;;;;;13.54;100.00;99462.44;1736247;82;20887;-49
2022/05/12 01:16:36;;;;;;;2.27;0.42;;;;;;;13.54;100.00;99457.52;1732930;82;21075;-49
2022/05/12 01:19:03;;;;;;;1.20;0.40;;;;;;;13.52;100.00;99456.28;1739218;82;21441;-48
2022/05/12 01:21:31;;;;;;;1.77;0.40;;;;;;;13.52;100.00;99457.64;1740112;82;21045;-51
2022/05/12 01:23:58;;;;;;;2.10;0.50;;;;;;;13.53;100.00;99457.12;1736545;80;21065;-51
2022/05/12 01:26:24;;;;;;;0.88;0.50;;;;;;;13.54;100.00;99457.52;1737022;82;21042;-51
2022/05/12 01:28:51;;;;;;;0.85;0.50;;;;;;;13.53;100.00;99454.42;1733831;82;21036;-49
2022/05/12 01:31:19;;;;;;;2.92;0.50;;;;;;;13.53;100.00;99458.48;1735640;82;21475;-49
2022/05/12 01:33:46;;;;;;;1.45;0.40;;;;;;;13.52;100.00;99446.82;1730923;82;21125;-51
2022/05/12 01:36:13;;;;;;;2.20;0.40;;;;;;;13.53;100.00;99450.36;1737510;82;21026;-49
2022/05/12 01:38:40;;;;;;;2.58;0.50;;;;;;;13.52;100.00;99454.06;1735045;82;21538;-51
2022/05/12 01:41:06;;;;;;;0.95;0.45;;;;;;;13.53;100.00;99451.72;1736612;81;21057;-51
2022/05/12 01:43:33;;;;;;;3.33;0.55;;;;;;;13.52;100.00;99454.06;1738453;82;21033;-49
2022/05/12 01:46:00;;;;;;;1.17;0.40;;;;;;;13.53;100.00;99453.06;1730873;82;22274;-54
2022/05/12 01:48:27;;;;;;;1.15;0.40;;;;;;;13.53;100.00;99454.42;1735246;82;21444;-49
2022/05/12 01:50:53;;;;;;;5.55;0.47;;;;;;;13.53;100.00;99452.59;1736839;82;21025;-50
2022/05/12 01:53:20;;;;;;;3.50;0.50;;;;;;;13.53;100.00;99453.06;1737462;82;20997;-54
2022/05/12 01:55:48;;;;;;;1.70;0.70;;;;;;;13.52;100.00;99446.82;1730370;82;20953;-52
2022/05/12 01:58:17;;;;;;;0.50;0.40;;;;;;;13.52;100.00;99445.95;1732813;81;22176;-52
2022/05/12 02:00:43;;;;;;;3.80;0.60;;;;;;;13.51;100.00;99447.78;1739155;82;21052;-52
2022/05/12 02:03:11;;;;;;;1.75;0.40;;;;;;;13.51;100.00;99450.97;1726444;82;21077;-53
2022/05/12 02:05:38;;;;;;;4.65;0.40;;;;;;;13.50;100.00;99446.53;1737069;82;21037;-53
2022/05/12 02:08:06;;;;;;;2.83;0.40;;;;;;;13.48;100.00;99443.05;1733848;82;21084;-53
2022/05/12 02:10:37;;;;;;;3.02;0.40;;;;;;;13.46;100.00;99437.73;1737325;82;21495;-53
2022/05/12 02:13:07;;;;;;;3.55;1.05;;;;;;;13.44;100.00;99438.31;1737288;82;20871;-53
2022/05/12 02:15:34;;;;;;;1.30;0.40;;;;;;;13.42;100.00;99438.91;1738805;82;21507;-54
2022/05/12 02:18:01;;;;;;;2.50;0.40;;;;;;;13.42;100.00;99442.10;1702519;83;21448;-53
2022/05/12 02:20:27;;;;;;;1.57;0.40;;;;;;;13.41;100.00;99439.02;1735349;82;20941;-53
2022/05/12 02:22:54;;;;;;;3.42;0.40;;;;;;;13.39;100.00;99430.99;1735593;82;21104;-53
2022/05/12 02:25:20;;;;;;;2.50;0.40;;;;;;;13.38;100.00;99440.06;1736358;80;21389;-52
2022/05/12 02:27:47;;;;;;;1.60;0.50;;;;;;;13.39;100.00;99440.94;1736736;82;21144;-52
2022/05/12 02:30:21;;;;;;;1.15;0.40;;;;;;;13.38;100.00;99441.42;1735699;82;21348;-53
2022/05/12 02:32:48;;;;;;;0.70;0.40;;;;;;;13.39;100.00;99439.58;1733195;82;21096;-54
2022/05/12 02:35:14;;;;;;;3.33;0.40;;;;;;;13.38;100.00;99447.30;1736831;81;23086;-53
2022/05/12 02:37:40;;;;;;;1.02;0.40;;;;;;;13.37;100.00;99449.14;1697946;83;21524;-53
2022/05/12 02:40:08;;;;;;;2.17;0.47;;;;;;;13.37;100.00;99443.73;1737063;82;20947;-53
2022/05/12 02:42:34;;;;;;;0.98;0.40;;;;;;;13.37;100.00;99445.08;1736997;82;20886;-52
2022/05/12 02:45:00;;;;;;;1.57;0.30;;;;;;;13.39;100.00;99446.34;1734606;82;21395;-52
2022/05/12 02:47:27;;;;;;;4.22;0.40;;;;;;;13.39;100.00;99440.45;1737168;82;21081;-52
2022/05/12 02:49:53;;;;;;;0.80;0.30;;;;;;;13.39;100.00;99439.11;1737069;82;21014;-52
2022/05/12 02:52:19;;;;;;;2.45;0.30;;;;;;;13.40;100.00;99449.44;1736940;82;20937;-52
2022/05/12 02:54:46;;;;;;;1.62;0.30;;;;;;;13.41;100.00;99452.05;1737653;82;20909;-52
2022/05/12 02:57:12;;;;;;;1.00;0.30;;;;;;;13.42;100.00;99447.03;1735190;81;22084;-52
2022/05/12 02:59:39;;;;;;;2.20;0.40;;;;;;;13.42;100.00;99447.52;1737077;82;21118;-52
2022/05/12 03:02:05;;;;;;;1.22;0.40;;;;;;;13.43;100.00;99446.06;1736267;82;20895;-52
2022/05/12 03:04:33;;;;;;;0.80;0.40;;;;;;;13.44;100.00;99448.28;1737884;82;21365;-52
2022/05/12 03:06:59;;;;;;;0.35;0.30;;;;;;;13.44;100.00;99448.28;1731833;82;20843;-52
2022/05/12 03:09:26;;;;;;;1.00;0.40;;;;;;;13.44;100.00;99445.06;1737404;82;20919;-53
2022/05/12 03:11:53;;;;;;;0.60;0.30;;;;;;;13.45;100.00;99451.34;1736118;82;21150;-52
2022/05/12 03:14:19;;;;;;;0.82;0.40;;;;;;;13.46;100.00;99452.60;1700423;83;21025;-52
2022/05/12 03:16:46;;;;;;;4.00;0.60;;;;;;;13.47;100.00;99452.13;1739677;82;20878;-51
2022/05/12 03:19:12;;;;;;;0.70;0.40;;;;;;;13.49;100.00;99453.77;1741043;82;21026;-53
2022/05/12 03:21:39;;;;;;;1.75;0.40;;;;;;;13.49;100.00;99448.84;1739658;81;20867;-52
2022/05/12 03:24:06;;;;;;;3.30;0.37;;;;;;;13.50;100.00;99455.51;1738452;82;21997;-53
2022/05/12 03:26:32;;;;;;;4.12;0.47;;;;;;;13.52;100.00;99447.30;1740875;82;20966;-53
2022/05/12 03:28:59;;;;;;;0.90;0.40;;;;;;;13.54;100.00;99450.75;1741119;82;21013;-53
2022/05/12 03:31:25;;;;;;;3.12;0.40;;;;;;;13.56;100.00;99448.34;1739882;82;20954;-54
2022/05/12 03:33:52;;;;;;;2.50;0.40;;;;;;;13.58;100.00;99445.06;1736302;81;20958;-52
2022/05/12 03:36:18;;;;;;;1.72;0.30;;;;;;;13.61;100.00;99449.38;1737178;82;21605;-53
2022/05/12 03:38:45;;;;;;;0.78;0.37;;;;;;;13.64;100.00;99447.84;1735597;82;21061;-53
2022/05/12 03:41:11;;;;;;;2.08;0.50;;;;;;;13.67;100.00;99446.30;1736034;82;21050;-52
2022/05/12 03:46:23;;;;;;;;;;;;;;;13.74;100.00;99446.27;1739566;82;21061;-52
2022/05/12 03:48:50;;;;;;;3.25;0.40;;;;;;;13.78;100.00;99449.14;1734115;82;22612;-53
2022/05/12 03:51:17;;;;;;;5.22;0.40;;;;;;;13.84;100.00;99442.47;1703444;83;21243;-53
2022/05/12 03:53:43;;;;;;;1.22;0.40;;;;;;;13.90;100.00;99444.28;1739320;82;20950;-53
2022/05/12 03:56:09;;;;;;;2.05;0.40;;;;;;;13.96;100.00;99445.70;1739049;82;21045;-53
2022/05/12 03:58:37;;;;;;;2.02;0.40;;;;;;;13.98;100.00;99450.05;1738291;82;21282;-52
2022/05/12 04:01:04;;;;;;;1.52;0.40;;;;;;;14.01;100.00;99442.22;1738514;82;21597;-53
2022/05/12 04:03:30;;;;;;;1.90;0.40;;;;;;;14.03;100.00;99442.99;1740000;82;21697;-53
2022/05/12 04:05:59;;;;;;;0.68;0.40;;;;;;;14.06;100.00;99440.05;1740218;82;21088;-51
2022/05/12 04:08:26;;;;;;;2.80;0.33;;;;;;;14.10;100.00;99442.08;1734066;82;21057;-54
2022/05/12 04:10:52;;;;;;;0.95;0.50;;;;;;;14.14;100.00;99440.89;1707281;83;21085;-53
2022/05/12 04:13:18;;;;;;;1.42;0.40;;;;;;;14.16;100.00;99441.66;1684936;84;21122;-53
2022/05/12 04:15:46;;;;;;;1.37;0.40;;;;;;;14.37;100.00;99435.63;1683263;84;21137;-53
2022/05/12 04:18:12;;;;;;;3.72;0.40;;;;;;;14.53;100.00;99434.64;1687141;84;20934;-52
2022/05/12 04:20:40;;;;;;;1.15;0.37;;;;;;;14.47;100.00;99432.33;1685191;84;21054;-52
2022/05/12 04:23:08;;;;;;;1.75;0.50;;;;;;;14.45;100.00;99436.52;1684615;84;21081;-53
2022/05/12 04:25:34;;;;;;;0.88;0.40;;;;;;;14.45;100.00;99433.81;1688077;84;21149;-53
2022/05/12 04:28:02;;;;;;;7.83;0.60;;;;;;;14.47;100.00;99435.03;1683050;84;21430;-53
2022/05/12 04:30:28;;;;;;;2.30;0.60;;;;;;;14.49;100.00;99431.26;1685436;84;21129;-52
2022/05/12 04:32:55;;;;;;;1.47;0.50;;;;;;;14.82;100.00;99438.87;1685578;84;21351;-52
2022/05/12 04:35:24;;;;;;;0.82;0.40;;;;;;;14.81;100.00;99433.06;1683703;84;21045;-53
2022/05/12 04:37:52;;;;;;;3.25;0.50;;;;;;;14.79;100.00;99433.69;1687835;84;21940;-51
2022/05/12 04:40:27;;;;;;;1.27;0.40;;;;;;;14.82;100.00;99432.09;1688205;84;21100;-52
2022/05/12 04:42:56;;;;;;;3.20;0.50;;;;;;;14.89;100.00;99429.81;1686621;84;21126;-53
2022/05/12 04:45:25;;;;;;;3.20;0.50;;;;;;;15.07;100.00;99432.08;1690542;84;20962;-52
2022/05/12 04:47:52;;;;;;;0.82;0.50;;;;;;;15.42;100.00;99421.88;1686564;84;21563;-52
2022/05/12 04:50:25;;;;;;;3.92;0.60;;;;;;;15.41;100.00;99423.72;1688250;84;21500;-51
2022/05/12 04:52:52;;;;;;;1.35;0.40;;;;;;;15.48;100.00;99429.59;1685401;84;21040;-54
2022/05/12 04:55:19;;;;;;;2.08;0.50;;;;;;;15.56;100.00;99427.22;1686800;84;21095;-53
2022/05/12 04:57:49;;;;;;;0.80;0.40;;;;;;;15.75;100.00;99428.05;1687791;84;21098;-53
2022/05/12 05:00:40;;;;;;;1.25;0.40;;;;;;;16.02;100.00;99425.98;1684538;84;21117;-52
2022/05/12 05:03:08;;;;;;;0.72;0.42;;;;;;;16.07;100.00;99422.94;1726801;81;21837;-52
2022/05/12 05:05:34;;;;;;;3.83;0.30;;;;;;;16.15;100.00;99425.94;1728295;81;21419;-52
2022/05/12 05:08:01;;;;;;;1.32;0.60;;;;;;;16.47;100.00;99422.96;1728931;81;21308;-53
2022/05/12 05:10:28;;;;;;;1.05;0.50;;;;;;;16.51;100.00;99417.64;1694564;83;20922;-52
2022/05/12 05:12:54;;;;;;;1.80;0.40;;;;;;;16.57;100.00;99414.97;1694603;83;21815;-52
2022/05/12 05:15:21;;;;;;;2.17;0.50;;;;;;;16.66;100.00;99418.36;1694196;83;21130;-52
2022/05/12 05:17:48;;;;;;;2.02;0.50;;;;;;;16.75;100.00;99414.05;1693560;83;21033;-52
2022/05/12 05:20:20;;;;;;;4.20;0.50;;;;;;;17.05;100.00;99412.95;1693681;83;21100;-52
2022/05/12 05:22:46;;;;;;;1.87;0.50;;;;;;;17.18;100.00;99407.41;1695004;83;20918;-52
2022/05/12 05:25:13;;;;;;;2.15;0.40;;;;;;;17.23;100.00;99403.32;1694410;83;20949;-54
2022/05/12 05:27:42;;;;;;;0.88;0.50;;;;;;;17.55;100.00;99409.34;1728776;81;21865;-53
2022/05/12 05:30:11;;;;;;;4.05;0.40;;;;;;;17.59;100.00;99398.09;1695376;83;21873;-53
2022/05/12 05:32:38;;;;;;;2.83;0.50;;;;;;;17.59;100.00;99398.09;1695065;83;20973;-53
2022/05/12 05:35:06;;;;;;;1.22;0.40;;;;;;;17.70;100.00;99399.94;1693420;83;21017;-53
2022/05/12 05:37:32;;;;;;;1.50;0.40;;;;;;;17.94;100.00;99394.32;1694473;83;21335;-53
2022/05/12 05:39:59;;;;;;;1.85;0.40;;;;;;;18.05;100.00;99392.41;1694865;83;21074;-53
2022/05/12 05:42:25;;;;;;;0.82;0.42;;;;;;;18.17;100.00;99386.42;1694739;83;20874;-53
2022/05/12 05:44:52;;;;;;;0.80;0.30;;;;;;;18.30;100.00;99388.95;1693493;83;21097;-52
2022/05/12 05:47:21;;;;;;;1.15;0.40;;;;;;;18.43;100.00;99383.70;1730404;81;21335;-53
2022/05/12 05:49:47;;;;;;;1.72;0.35;;;;;;;18.75;100.00;99370.02;1727617;81;20930;-51
2022/05/12 05:54:58;;;;;;;0.75;0.40;;;;;;;18.96;100.00;99368.63;1728923;81;20966;-53
2022/05/12 05:57:27;;;;;;;1.50;0.42;;;;;;;19.07;100.00;99367.65;1739852;80;21409;-52
2022/05/12 05:59:56;;;;;;;1.60;0.40;;;;;;;19.15;100.00;99359.14;1759977;80;20903;-53
2022/05/12 06:02:22;;;;;;;1.70;0.37;;;;;;;19.52;100.00;99351.77;1758796;80;20915;-53
2022/05/12 06:04:49;;;;;;;0.95;0.40;;;;;;;19.57;100.00;99350.33;1759664;80;22011;-54
2022/05/12 06:07:16;;;;;;;2.15;0.50;;;;;;;19.61;100.00;99355.88;1758847;80;21503;-55
2022/05/12 06:09:43;;;;;;;1.80;0.40;;;;;;;19.68;100.00;99345.75;1759408;80;21032;-52
2022/05/12 06:12:10;;;;;;;5.42;0.42;;;;;;;19.75;100.00;99337.35;1759907;80;20949;-53
2022/05/12 06:14:38;;;;;;;0.95;0.40;;;;;;;19.83;100.00;99340.23;1761832;80;21322;-52
2022/05/12 06:17:05;;;;;;;3.47;0.50;;;;;;;20.10;100.00;99334.06;1724343;82;21107;-53
2022/05/12 06:19:32;;;;;;;2.90;0.40;;;;;;;20.17;100.00;99334.70;1702805;83;21436;-54
2022/05/12 06:22:00;;;;;;;3.00;0.50;;;;;;;20.23;100.00;99334.65;1716570;82;20966;-52
2022/05/12 06:24:26;;;;;;;2.80;0.47;;;;;;;20.30;100.00;99326.22;1695863;82;20904;-53
2022/05/12 06:26:53;;;;;;;2.17;0.40;;;;;;;20.45;100.00;99328.02;1716232;82;21389;-54
2022/05/12 06:29:20;;;;;;;3.62;0.40;;;;;;;20.68;100.00;99319.83;1716590;82;21088;-54
2022/05/12 06:31:47;;;;;;;5.62;0.60;;;;;;;20.73;100.00;99313.43;1715409;82;20955;-53
2022/05/12 06:34:15;;;;;;;3.60;0.33;;;;;;;20.79;100.00;99305.98;1714658;82;21072;-54
2022/05/12 06:36:41;;;;;;;1.80;0.47;;;;;;;20.89;100.00;99303.22;1714409;82;21776;-55
2022/05/12 06:39:08;;;;;;;3.45;0.40;;;;;;;21.04;100.00;99305.30;1713986;82;21092;-53
2022/05/12 06:41:35;;;;;;;3.10;0.37;;;;;;;21.27;100.00;99304.92;1713853;82;21676;-53
2022/05/12 06:44:02;;;;;;;1.07;0.45;;;;;;;21.33;100.00;99303.83;1713755;82;21120;-53
2022/05/12 06:46:29;;;;;;;2.90;0.40;;;;;;;21.43;100.00;99301.91;1720693;81;21120;-53
2022/05/12 06:48:56;;;;;;;2.45;0.40;;;;;;;21.60;100.00;99300.20;1700460;83;21454;-53
2022/05/12 06:51:22;;;;;;;3.42;0.80;;;;;;;21.63;100.00;99299.87;1699745;83;21799;-53
2022/05/12 06:53:48;;;;;;;1.00;0.50;;;;;;;21.64;100.00;99297.50;1715135;82;21140;-53
2022/05/12 06:56:16;;;;;;;1.45;0.50;;;;;;;21.66;100.00;99295.98;1711783;82;21120;-53
2022/05/12 06:58:43;;;;;;;0.95;0.50;;;;;;;21.81;100.00;99293.05;1721078;82;21092;-53
2022/05/12 07:01:09;;;;;;;1.25;0.45;;;;;;;21.80;100.00;99292.18;1700062;83;21655;-53
2022/05/12 07:03:37;;;;;;;1.45;0.60;;;;;;;21.81;100.00;99289.80;1700541;83;21056;-53
2022/05/12 07:06:05;;;;;;;1.22;0.80;;;;;;;21.88;100.00;99288.15;1714622;82;21148;-53
2022/05/12 07:08:32;;;;;;;4.37;0.60;;;;;;;22.07;100.00;99292.64;1715754;82;21360;-55
2022/05/12 07:10:58;;;;;;;5.00;0.50;;;;;;;22.12;100.00;99277.08;1714530;82;21475;-54
2022/05/12 07:13:25;;;;;;;0.75;0.50;;;;;;;22.17;100.00;99275.61;1713537;82;21096;-56
2022/05/12 07:15:52;;;;;;;6.30;0.65;;;;;;;22.24;100.00;99277.19;1714670;82;21033;-54
2022/05/12 07:18:19;;;;;;;3.65;0.50;;;;;;;22.43;100.00;99276.14;1714696;82;21957;-53
2022/05/12 07:29:02;;;;;;;2.02;0.50;;;;;;;22.69;100.00;99281.62;1713779;82;21025;-54
2022/05/12 07:31:29;;;;;;;2.22;0.50;;;;;;;22.77;100.00;99277.59;1712890;82;21859;-56
2022/05/12 07:33:57;;;;;;;3.02;0.80;;;;;;;22.86;100.00;99276.61;1700661;83;21551;-55
2022/05/12 07:36:26;;;;;;;1.67;0.60;;;;;;;22.93;100.00;99279.05;1684259;84;21639;-53
2022/05/12 07:38:55;;;;;;;0.78;0.60;;;;;;;22.99;100.00;99273.75;1701836;83;21369;-54
2022/05/12 07:41:22;;;;;;;3.83;0.50;;;;;;;23.17;100.00;99276.41;1702447;83;20985;-54
2022/05/12 07:43:49;;;;;;;3.72;0.68;;;;;;;23.25;100.00;99269.58;1701894;83;21209;-56
2022/05/12 07:46:18;;;;;;;1.07;0.70;;;;;;;23.31;100.00;99263.41;1701949;83;21072;-54
2022/05/12 07:48:45;;;;;;;1.75;0.70;;;;;;;23.36;100.00;99263.78;1701133;83;21568;-55
2022/05/12 07:51:11;;;;;;;2.35;0.62;;;;;;;23.45;100.00;99257.80;1702594;83;21108;-55
2022/05/12 07:53:39;;;;;;;5.60;0.60;;;;;;;23.65;100.00;99246.87;1704041;83;20950;-55
2022/05/12 07:56:06;;;;;;;1.22;0.70;;;;;;;23.74;100.00;99248.61;1702851;83;21131;-53
2022/05/12 07:58:32;;;;;;;3.12;0.60;;;;;;;23.87;100.00;99257.73;1702222;83;21026;-55
2022/05/12 08:00:59;;;;;;;1.72;0.45;;;;;;;23.97;100.00;99245.20;1702293;83;21282;-54
2022/05/12 08:03:26;;;;;;;1.67;0.60;;;;;;;24.01;100.00;99240.55;1698618;82;21084;-52
2022/05/12 08:05:53;;;;;;;1.57;0.75;;;;;;;24.01;100.00;99239.18;1698975;82;21586;-53
2022/05/12 08:08:20;;;;;;;16.85;0.75;;;;;;;24.03;100.00;99233.00;1701049;82;21498;-54
2022/05/12 08:10:47;;;;;;;1.87;0.45;;;;;;;24.06;100.00;99242.29;1697205;82;21650;-53
2022/05/12 08:13:18;;;;;;;2.77;0.60;;;;;;;24.22;100.00;99236.47;1699149;82;21049;-54
2022/05/12 08:15:46;;;;;;;1.27;0.50;;;;;;;24.30;100.00;99236.45;1698948;82;21041;-55
2022/05/12 08:18:13;;;;;;;1.50;0.50;;;;;;;24.47;100.00;99235.41;1700261;82;21057;-55
2022/05/12 08:20:39;;;;;;;4.87;0.70;;;;;;;24.59;100.00;99227.10;1698538;82;22308;-54
2022/05/12 08:25:09;;;;;;;1.55;0.85;;;;;;;24.78;100.00;99224.48;1763196;79;28423;-52
2022/05/12 08:27:35;;;;;;;0.60;0.50;;;;;;;24.87;100.00;99234.42;1736285;81;21021;-54
2022/05/12 08:30:04;;;;;;;2.85;0.50;;;;;;;24.96;100.00;99227.03;1734195;81;21855;-55
2022/05/12 08:32:30;;;;;;;3.40;0.93;;;;;;;25.05;100.00;99219.94;1741022;81;20926;-55
2022/05/12 08:34:57;;;;;;;4.50;0.60;;;;;;;25.13;100.00;99222.65;1737221;81;20945;-55
2022/05/12 08:37:23;;;;;;;1.10;0.70;;;;;;;25.21;100.00;99216.23;1653082;85;21415;-54
2022/05/12 08:39:49;;;;;;;3.67;0.60;;;;;;;25.29;100.00;99212.06;1677646;84;20966;-55
2022/05/12 08:42:41;;;;;;;3.50;0.65;;;;;;;25.35;100.00;99217.39;1679747;83;20938;-53
2022/05/12 08:45:08;;;;;;;1.02;0.68;;;;;;;25.41;100.00;99213.90;1701772;83;21187;-52
2022/05/12 08:47:45;;;;;;;2.20;0.70;;;;;;;25.51;100.00;99209.02;1678667;84;20942;-54
2022/05/12 08:50:15;;;;;;;2.25;0.60;;;;;;;25.57;100.00;99206.38;1698941;83;20935;-55
2022/05/12 08:52:52;;;;;;;5.47;0.80;;;;;;;25.58;100.00;99212.75;1674830;84;20934;-54
2022/05/12 08:55:44;;;;;;;1.47;0.60;;;;;;;25.51;100.00;99204.37;1700167;83;20958;-53
2022/05/12 08:58:25;;;;;;;2.33;0.70;;;;;;;25.48;100.00;99201.11;1668242;84;21447;-54
2022/05/12 09:01:36;;;;;;;1.47;0.60;;;;;;;25.48;100.00;99195.08;1662333;85;20908;-55
2022/05/12 09:04:34;;;;;;;1.98;0.62;;;;;;;25.50;100.00;99193.52;1657477;85;20939;-56
2022/05/12 09:07:27;;;;;;;2.92;0.60;;;;;;;25.56;100.00;99195.53;1665393;85;20931;-55
2022/05/12 09:10:01;;;;;;;3.98;0.70;;;;;;;25.66;100.00;99198.09;1664946;85;21879;-54
2022/05/12 09:12:52;;;;;;;6.80;1.32;;;;;;;25.69;100.00;99192.22;1683930;84;21374;-56
2022/05/12 09:15:34;;;;;;;4.22;0.62;;;;;;;25.75;100.00;99177.69;1663075;85;21062;-55
2022/05/12 09:18:12;;;;;;;3.83;0.75;;;;;;;25.85;100.00;99165.38;1652577;85;21066;-54
2022/05/12 09:20:39;;;;;;;1.35;0.70;;;;;;;25.92;100.00;99166.34;1684183;84;21526;-55
2022/05/12 09:23:06;;;;;;;4.65;0.60;;;;;;;26.00;100.00;99164.03;1670708;84;21525;-55
2022/05/12 09:25:42;;;;;;;6.05;0.70;;;;;;;26.18;100.00;99170.59;1678442;83;21069;-54
2022/05/12 09:28:35;;;;;;;3.62;0.60;;;;;;;26.33;100.00;99167.36;1681595;83;21017;-55
2022/05/12 09:31:16;;;;;;;2.60;0.75;;;;;;;26.60;100.00;99158.95;1646538;85;21081;-54
2022/05/12 09:33:48;;;;;;;2.20;0.65;;;;;;;26.70;100.00;99150.72;1644857;85;21586;-54
2022/05/12 09:36:28;;;;;;;5.17;0.72;;;;;;;26.48;100.00;99150.80;1645150;85;21454;-54
2022/05/12 09:38:57;;;;;;;1.40;0.80;;;;;;;26.69;100.00;99146.25;1580982;83;974952;-56
2022/05/12 09:41:43;;;;;;;2.75;0.80;;;;;;;26.69;100.00;99146.25;1450420;83;985226;-55
2022/05/12 10:08:24;;;;;;;10.65;0.75;;;;;;;26.69;100.00;99146.25;1676952;83;21059;-53
2022/05/12 10:11:04;;;;;;;3.73;0.73;;;;;;;26.68;100.00;99106.41;1679208;83;20891;-55
2022/05/12 10:13:52;;;;;;;1.15;0.78;;;;;;;26.65;100.00;99109.54;1678480;83;20993;-55
2022/05/12 10:16:21;;;;;;;1.82;0.60;;;;;;;26.67;100.00;99096.41;1676369;83;21577;-54
2022/05/12 10:18:52;;;;;;;4.37;0.70;;;;;;;26.73;100.00;99110.81;1675633;83;21403;-53
2022/05/12 10:21:39;;;;;;;1.42;0.60;;;;;;;26.78;100.00;99102.83;1676686;83;21336;-54
2022/05/12 10:24:17;;;;;;;2.50;0.70;;;;;;;26.83;100.00;99087.05;1676534;83;21340;-55
2022/05/12 10:26:56;;;;;;;3.10;0.75;;;;;;;27.05;100.00;99103.48;1691206;83;21611;-57
2022/05/12 10:29:53;;;;;;;1.47;0.70;;;;;;;27.09;100.00;99080.48;1701296;83;21118;-54
2022/05/12 10:33:03;;;;;;;3.25;0.70;;;;;;;27.41;100.00;99092.41;1699789;83;21142;-53
2022/05/12 10:35:49;;;;;;;4.55;0.70;;;;;;;27.29;100.00;99080.19;1700525;83;21413;-56
2022/05/12 10:38:43;;;;;;;1.17;1.00;;;;;;;27.24;100.00;99086.80;1700065;83;21058;-56
2022/05/12 10:41:33;;;;;;;1.20;0.72;;;;;;;27.47;100.00;99071.44;1700471;83;21515;-56
2022/05/12 10:44:26;;;;;;;2.85;0.72;;;;;;;27.48;100.00;99069.83;1685809;83;21117;-56
2022/05/12 10:47:13;;;;;;;3.80;0.70;;;;;;;27.41;100.00;99061.15;1661242;85;21533;-55
2022/05/12 10:50:38;;;;;;;7.00;0.80;;;;;;;27.37;100.00;99067.62;1658688;83;22629;-55
2022/05/12 10:53:16;;;;;;;2.85;0.90;;;;;;;27.67;100.00;99060.04;1698518;83;21121;-55
2022/05/12 10:55:48;;;;;;;0.93;0.68;;;;;;;27.49;100.00;99058.25;1698255;82;21619;-54
2022/05/12 10:59:05;;;;;;;12.37;1.65;;;;;;;27.31;100.00;99039.89;1662329;85;21150;-53
2022/05/12 11:01:38;;;;;;;5.22;0.70;;;;;;;27.24;100.00;99054.17;1701273;83;21622;-55
2022/05/12 11:04:21;;;;;;;3.52;0.75;;;;;;;27.58;100.00;99036.35;1703883;83;21500;-54
2022/05/12 11:06:58;;;;;;;2.35;0.70;;;;;;;27.44;100.00;99044.18;1684161;83;21507;-54
2022/05/12 11:09:33;;;;;;;6.22;0.82;;;;;;;27.39;100.00;99031.50;1698916;83;21101;-54
2022/05/12 11:12:06;;;;;;;4.08;0.62;;;;;;;27.36;100.00;99003.73;1698480;83;21234;-55
2022/05/12 11:14:39;;;;;;;2.87;0.80;;;;;;;27.73;100.00;99028.81;1695466;83;20998;-54
2022/05/12 11:17:21;;;;;;;1.10;0.70;;;;;;;27.78;100.00;99024.94;1701905;83;20892;-56
2022/05/12 11:20:02;;;;;;;4.22;0.78;;;;;;;27.69;100.00;99016.98;1695942;83;20966;-55
2022/05/12 11:22:46;;;;;;;3.75;0.60;;;;;;;27.63;100.00;99015.89;1701318;83;21606;-55
2022/05/12 11:25:29;;;;;;;3.80;0.70;;;;;;;27.61;100.00;99018.52;1701164;83;21476;-56
2022/05/12 11:31:21;;;;;;;1.85;0.60;;;;;;;27.40;100.00;99002.78;1698766;83;20907;-55
2022/05/12 11:33:50;;;;;;;;;;;;;;;27.31;100.00;99002.59;1702792;83;20883;-55
2022/05/12 11:36:17;;;;;;;2.02;0.70;;;;;;;27.27;100.00;98995.25;1699129;83;20127;-56
2022/05/12 11:38:51;;;;;;;2.35;0.60;;;;;;;27.26;100.00;99010.64;1703730;83;21694;-55
2022/05/12 11:41:34;;;;;;;1.75;0.60;;;;;;;27.25;100.00;98978.00;1701825;83;21256;-55
2022/05/12 11:44:34;;;;;;;1.45;0.62;;;;;;;27.30;100.00;98987.95;1703092;83;20864;-57
2022/05/12 11:47:36;;;;;;;4.62;0.70;;;;;;;27.33;100.00;98991.68;1702152;83;21721;-56
2022/05/12 11:50:18;;;;;;;;;;;;;;;27.39;100.00;98981.20;1707448;83;20970;-55
2022/05/12 11:53:05;;;;;;;3.92;0.90;;;;;;;27.44;100.00;98965.41;1702445;83;21126;-56
2022/05/12 11:55:37;;;;;;;11.28;0.80;;;;;;;27.49;100.00;98971.19;1700792;82;20959;-56
2022/05/12 11:58:11;;;;;;;4.75;0.80;;;;;;;27.56;100.00;98958.30;1643204;85;20987;-55
2022/05/12 12:00:44;;;;;;;2.98;0.60;;;;;;;27.60;100.00;98963.77;1663916;85;20884;-57
2022/05/12 12:03:25;;;;;;;5.37;0.68;;;;;;;27.64;100.00;98955.93;1704219;83;20975;-55
2022/05/12 12:05:58;;;;;;;4.78;0.60;;;;;;;27.66;100.00;98945.50;1700728;83;20982;-55
2022/05/12 12:08:42;;;;;;;4.22;0.60;;;;;;;27.95;100.00;98949.95;1700565;83;21464;-55
2022/05/12 12:11:22;;;;;;;0.88;0.60;;;;;;;27.90;100.00;98944.19;1701728;83;21057;-55
2022/05/12 12:13:52;;;;;;;0.80;0.60;;;;;;;27.92;100.00;98937.89;1703248;83;20951;-55
2022/05/12 12:16:22;;;;;;;5.85;0.68;;;;;;;27.85;100.00;98923.51;1701454;83;20928;-56
2022/05/12 12:19:03;;;;;;;6.70;0.75;;;;;;;27.84;100.00;98919.03;1663595;85;21096;-55
2022/05/12 12:21:43;;;;;;;6.70;0.70;;;;;;;27.84;100.00;98927.33;1701717;83;21442;-57
2022/05/12 12:24:26;;;;;;;1.62;0.55;;;;;;;27.85;100.00;98919.89;1700799;83;21022;-55
2022/05/12 12:26:56;;;;;;;1.90;0.57;;;;;;;27.86;100.00;98921.08;1701059;82;21050;-57
2022/05/12 12:29:42;;;;;;;2.08;0.70;;;;;;;27.90;100.00;98917.39;1699289;83;21954;-56